createdAt,value
2019-03-28T00:00:06.834Z,34.70
2019-03-28T00:02:35.531Z,34.30
2019-03-28T00:05:04.833Z,33.87
2019-03-28T00:07:33.476Z,33.30
2019-03-28T00:10:02.681Z,32.60
2019-03-28T00:12:31.492Z,34.60
2019-03-28T00:15:02.207Z,34.23
2019-03-28T00:17:30.826Z,35.77
2019-03-28T00:19:59.448Z,36.70
2019-03-28T00:22:38.602Z,37.63
2019-03-28T00:25:10.377Z,35.53
2019-03-28T00:27:39.018Z,35.40
2019-03-28T00:30:08.063Z,36.57
2019-03-28T00:32:36.685Z,36.83
2019-03-28T00:35:06.949Z,36.20
2019-03-28T00:37:35.904Z,34.77
2019-03-28T00:40:06.488Z,38.17
2019-03-28T00:42:35.855Z,36.03
2019-03-28T00:45:06.849Z,36.60
2019-03-28T00:47:36.172Z,35.30
2019-03-28T00:50:08.292Z,36.80
2019-03-28T00:52:37.093Z,38.33
2019-03-28T00:55:08.840Z,36.90
2019-03-28T00:57:37.455Z,38.87
2019-03-28T01:00:08.436Z,38.37
2019-03-28T01:02:37.153Z,35.77
2019-03-28T01:05:07.039Z,37.20
2019-03-28T01:07:35.674Z,36.97
2019-03-28T01:10:05.747Z,39.10
2019-03-28T01:12:34.672Z,37.30
2019-03-28T01:15:04.684Z,38.17
2019-03-28T01:17:33.296Z,38.80
2019-03-28T01:20:01.985Z,38.83
2019-03-28T01:22:31.048Z,39.97
2019-03-28T01:24:59.848Z,38.20
2019-03-28T01:27:28.467Z,37.50
2019-03-28T01:29:57.276Z,38.20
2019-03-28T01:32:26.237Z,39.93
2019-03-28T01:34:54.876Z,38.47
2019-03-28T01:37:23.586Z,36.00
2019-03-28T01:39:52.604Z,35.90
2019-03-28T01:42:21.232Z,36.03
2019-03-28T01:44:49.883Z,36.03
2019-03-28T01:47:18.567Z,38.40
2019-03-28T01:49:47.221Z,36.47
2019-03-28T01:52:15.915Z,36.80
2019-03-28T01:54:44.546Z,37.53
2019-03-28T01:57:13.237Z,35.47
2019-03-28T01:59:41.861Z,36.00
2019-03-28T02:02:10.482Z,38.77
2019-03-28T02:04:39.110Z,36.73
2019-03-28T02:07:07.722Z,36.03
2019-03-28T02:09:36.998Z,36.83
2019-03-28T02:12:05.871Z,36.30
2019-03-28T02:14:34.568Z,37.87
2019-03-28T02:17:03.350Z,35.97
2019-03-28T02:19:31.977Z,36.57
2019-03-28T02:22:01.056Z,37.63
2019-03-28T02:24:29.688Z,37.27
2019-03-28T02:26:58.786Z,38.57
2019-03-28T02:29:27.913Z,37.93
2019-03-28T02:31:56.581Z,37.33
2019-03-28T02:34:25.207Z,39.03
2019-03-28T02:36:53.851Z,36.57
2019-03-28T02:39:22.522Z,37.13
2019-03-28T02:42:00.330Z,37.57
2019-03-28T02:44:30.012Z,39.13
2019-03-28T02:46:58.704Z,38.40
2019-03-28T02:49:27.284Z,38.90
2019-03-28T02:51:55.937Z,38.07
2019-03-28T02:54:24.552Z,38.80
2019-03-28T02:56:53.270Z,41.37
2019-03-28T02:59:21.876Z,38.77
2019-03-28T03:01:50.597Z,40.43
2019-03-28T03:04:19.238Z,40.80
2019-03-28T03:06:47.876Z,42.73
2019-03-28T03:09:16.929Z,42.07
2019-03-28T03:11:45.641Z,39.93
2019-03-28T03:14:14.336Z,39.73
2019-03-28T03:16:43.262Z,41.90
2019-03-28T03:19:11.883Z,40.77
2019-03-28T03:21:40.534Z,39.73
2019-03-28T03:24:09.151Z,39.47
2019-03-28T03:26:37.782Z,37.83
2019-03-28T03:29:06.854Z,43.20
2019-03-28T03:31:35.468Z,41.60
2019-03-28T03:34:05.346Z,41.60
2019-03-28T03:36:34.403Z,39.00
2019-03-28T03:39:03.021Z,39.67
2019-03-28T03:41:31.650Z,40.10
2019-03-28T03:44:00.279Z,41.17
2019-03-28T03:46:29.309Z,39.87
2019-03-28T03:48:58.308Z,39.07
2019-03-28T03:51:27.069Z,40.47
2019-03-28T03:53:55.753Z,38.53
2019-03-28T03:56:24.377Z,38.20
2019-03-28T03:58:52.984Z,38.37
2019-03-28T04:01:21.650Z,39.87
2019-03-28T04:03:50.295Z,39.60
2019-03-28T04:06:18.920Z,38.77
2019-03-28T04:08:47.540Z,38.80
2019-03-28T04:11:16.281Z,38.53
2019-03-28T04:13:45.211Z,39.13
2019-03-28T04:16:13.930Z,38.37
2019-03-28T04:18:42.549Z,37.60
2019-03-28T04:21:11.150Z,41.00
2019-03-28T04:23:39.784Z,41.70
2019-03-28T04:26:08.483Z,40.03
2019-03-28T04:28:37.238Z,39.63
2019-03-28T04:31:07.015Z,41.27
2019-03-28T04:33:35.838Z,40.77
2019-03-28T04:36:04.739Z,43.20
2019-03-28T04:38:33.378Z,43.30
2019-03-28T04:41:02.066Z,41.03
2019-03-28T04:43:30.731Z,41.47
2019-03-28T04:45:59.362Z,42.23
2019-03-28T04:48:28.030Z,42.70
2019-03-28T04:50:56.638Z,40.53
2019-03-28T04:53:25.264Z,40.50
2019-03-28T04:55:53.898Z,41.63
2019-03-28T04:58:23.356Z,42.30
2019-03-28T05:00:52.381Z,40.90
2019-03-28T05:03:21.015Z,41.70
2019-03-28T05:05:50.063Z,43.47
2019-03-28T05:08:18.711Z,41.30
2019-03-28T05:10:47.322Z,42.47
2019-03-28T05:13:15.966Z,42.60
2019-03-28T05:15:44.570Z,40.80
2019-03-28T05:18:13.212Z,40.27
2019-03-28T05:20:41.832Z,40.97
2019-03-28T05:23:10.472Z,41.60
2019-03-28T05:25:39.088Z,40.80
2019-03-28T05:28:07.735Z,40.43
2019-03-28T05:30:37.322Z,39.97
2019-03-28T05:33:05.905Z,39.57
2019-03-28T05:35:34.537Z,38.20
2019-03-28T05:38:03.189Z,39.93
2019-03-28T05:40:31.762Z,40.97
2019-03-28T05:43:00.425Z,38.93
2019-03-28T05:45:29.064Z,38.23
2019-03-28T05:48:00.218Z,38.67
2019-03-28T05:50:28.068Z,37.73
2019-03-28T05:52:56.733Z,38.17
2019-03-28T05:55:25.348Z,37.20
2019-03-28T05:57:54.037Z,39.40
2019-03-28T06:00:23.081Z,37.97
2019-03-28T06:02:51.693Z,39.00
2019-03-28T06:05:20.772Z,37.37
2019-03-28T06:07:49.564Z,36.97
2019-03-28T06:10:18.268Z,35.80
2019-03-28T06:12:46.984Z,35.80
2019-03-28T06:15:15.746Z,37.47
2019-03-28T06:17:44.435Z,35.60
2019-03-28T06:20:13.518Z,35.90
2019-03-28T06:22:42.511Z,33.47
2019-03-28T06:25:11.412Z,35.30
2019-03-28T06:27:40.088Z,33.67
2019-03-28T06:30:09.779Z,33.10
2019-03-28T06:32:43.244Z,32.77
2019-03-28T06:35:08.853Z,32.57
2019-03-28T06:37:37.478Z,33.33
2019-03-28T06:40:15.247Z,32.17
2019-03-28T06:42:44.028Z,33.70
2019-03-28T06:45:12.938Z,33.80
2019-03-28T06:47:41.605Z,33.27
2019-03-28T06:50:11.288Z,31.63
2019-03-28T06:52:40.147Z,32.00
2019-03-28T06:55:08.925Z,30.67
2019-03-28T06:57:37.627Z,31.70
2019-03-28T07:00:09.097Z,28.87
2019-03-28T07:02:37.691Z,30.90
2019-03-28T07:05:06.728Z,30.10
2019-03-28T07:07:35.363Z,28.80
2019-03-28T07:10:06.461Z,28.87
2019-03-28T07:12:35.130Z,28.43
2019-03-28T07:15:05.587Z,28.23
2019-03-28T07:17:34.289Z,27.83
2019-03-28T07:20:02.889Z,28.10
2019-03-28T07:22:31.532Z,26.90
2019-03-28T07:25:00.436Z,26.60
2019-03-28T07:27:29.165Z,27.50
2019-03-28T07:29:58.230Z,25.83
2019-03-28T07:32:26.959Z,24.30
2019-03-28T07:34:55.563Z,24.53
2019-03-28T07:37:24.281Z,23.93
2019-03-28T07:39:52.958Z,22.90
2019-03-28T07:42:21.564Z,21.60
2019-03-28T07:44:50.236Z,21.63
2019-03-28T07:47:18.847Z,20.50
2019-03-28T07:49:47.486Z,22.00
2019-03-28T07:52:16.243Z,23.00
2019-03-28T07:54:44.866Z,20.93
2019-03-28T07:57:13.542Z,20.83
2019-03-28T07:59:44.125Z,21.17
2019-03-28T08:02:12.638Z,20.80
2019-03-28T08:04:41.312Z,20.90
2019-03-28T08:07:09.933Z,20.83
2019-03-28T08:09:38.664Z,21.07
2019-03-28T08:12:21.399Z,21.13
2019-03-28T08:14:37.578Z,21.37
2019-03-28T08:17:06.194Z,20.33
2019-03-28T08:19:34.914Z,21.10
2019-03-28T08:22:03.682Z,20.70
2019-03-28T08:24:51.734Z,19.40
2019-03-28T08:27:20.349Z,19.37
2019-03-28T08:29:49.085Z,21.57
2019-03-28T08:32:19.399Z,19.93
2019-03-28T08:34:48.111Z,21.20
2019-03-28T08:37:16.984Z,20.50
2019-03-28T08:39:45.737Z,19.80
2019-03-28T08:42:14.374Z,19.57
2019-03-28T08:44:43.180Z,18.67
2019-03-28T08:47:11.792Z,19.30
2019-03-28T08:49:40.440Z,17.83
2019-03-28T08:52:11.630Z,18.43
2019-03-28T08:54:39.319Z,19.07
2019-03-28T08:57:07.971Z,18.20
2019-03-28T08:59:36.679Z,16.90
2019-03-28T09:02:05.583Z,15.23
2019-03-28T09:04:34.270Z,14.40
2019-03-28T09:07:03.030Z,15.03
2019-03-28T09:09:31.667Z,11.77
2019-03-28T09:12:00.346Z,12.87
2019-03-28T09:14:31.793Z,13.17
2019-03-28T09:16:59.642Z,13.03
2019-03-28T09:19:28.351Z,16.90
2019-03-28T09:21:56.977Z,17.77
2019-03-28T09:24:25.691Z,15.33
2019-03-28T09:26:54.831Z,14.57
2019-03-28T09:29:23.484Z,14.67
2019-03-28T09:31:52.558Z,15.47
2019-03-28T09:34:21.214Z,14.47
2019-03-28T09:36:49.826Z,14.47
2019-03-28T09:39:19.380Z,54.90
2019-03-28T09:41:48.103Z,42.33
2019-03-28T09:44:16.745Z,13.87
2019-03-28T09:46:45.389Z,18.43
2019-03-28T09:49:14.053Z,79.13
2019-03-28T09:51:42.757Z,31.97
2019-03-28T09:54:11.503Z,16.50
2019-03-28T09:56:40.546Z,15.87
2019-03-28T09:59:09.185Z,28.83
2019-03-28T10:01:37.953Z,16.40
2019-03-28T10:04:06.742Z,15.40
2019-03-28T10:06:35.322Z,16.63
2019-03-28T10:09:05.333Z,13.83
2019-03-28T10:11:33.958Z,20.00
2019-03-28T10:14:02.679Z,17.47
2019-03-28T10:16:31.296Z,14.73
2019-03-28T10:19:00.286Z,12.90
2019-03-28T10:21:28.987Z,11.00
2019-03-28T10:23:57.676Z,12.70
2019-03-28T10:26:26.763Z,13.10
2019-03-28T10:28:55.399Z,13.37
2019-03-28T10:31:24.451Z,13.73
2019-03-28T10:33:53.355Z,13.03
2019-03-28T10:36:21.968Z,11.53
2019-03-28T10:38:50.948Z,13.40
2019-03-28T10:41:19.564Z,13.27
2019-03-28T10:43:48.295Z,7.33
2019-03-28T10:46:16.911Z,9.17
2019-03-28T10:48:45.656Z,13.03
2019-03-28T10:51:14.273Z,12.53
2019-03-28T10:53:42.995Z,10.03
2019-03-28T10:56:21.674Z,5.93
2019-03-28T10:58:42.285Z,6.43
2019-03-28T11:01:11.059Z,7.33
2019-03-28T11:03:39.690Z,6.63
2019-03-28T11:06:08.300Z,6.43
2019-03-28T11:08:36.972Z,6.93
2019-03-28T11:11:05.664Z,9.10
2019-03-28T11:13:34.278Z,7.90
2019-03-28T11:16:03.198Z,7.67
2019-03-28T11:18:31.907Z,9.43
2019-03-28T11:21:00.509Z,9.90
2019-03-28T11:23:29.218Z,9.90
2019-03-28T11:25:57.824Z,9.47
2019-03-28T11:28:26.446Z,9.77
2019-03-28T11:30:55.076Z,9.30
2019-03-28T11:33:23.706Z,8.70
2019-03-28T11:35:52.377Z,5.67
2019-03-28T11:38:21.018Z,5.97
2019-03-28T11:40:49.625Z,6.20
2019-03-28T11:43:18.267Z,4.97
2019-03-28T11:45:46.886Z,4.03
2019-03-28T11:48:15.498Z,4.00
2019-03-28T11:50:44.137Z,3.30
2019-03-28T11:53:12.756Z,3.23
2019-03-28T11:55:41.472Z,3.40
2019-03-28T11:58:10.198Z,3.90
2019-03-28T12:00:39.649Z,4.60
2019-03-28T12:03:08.313Z,4.60
2019-03-28T12:05:36.949Z,4.90
2019-03-28T12:08:05.643Z,5.57
2019-03-28T12:10:34.349Z,4.93
2019-03-28T12:13:03.040Z,4.50
2019-03-28T12:15:31.725Z,4.10
2019-03-28T12:18:00.471Z,3.90
2019-03-28T12:20:29.164Z,4.40
2019-03-28T12:22:57.856Z,4.97
2019-03-28T12:25:26.640Z,4.80
2019-03-28T12:27:55.334Z,4.07
2019-03-28T12:30:24.449Z,5.20
2019-03-28T12:32:53.141Z,4.20
2019-03-28T12:35:21.770Z,5.13
2019-03-28T12:37:50.452Z,5.37
2019-03-28T12:40:19.289Z,5.57
2019-03-28T12:42:47.926Z,6.23
2019-03-28T12:45:16.952Z,4.90
2019-03-28T12:47:45.734Z,5.03
2019-03-28T12:50:14.892Z,5.03
2019-03-28T12:52:43.507Z,4.17
2019-03-28T12:55:12.357Z,3.27
2019-03-28T12:57:41.000Z,4.10
2019-03-28T13:00:13.334Z,5.10
2019-03-28T13:02:42.022Z,5.53
2019-03-28T13:05:11.305Z,6.73
2019-03-28T13:07:40.059Z,5.73
2019-03-28T13:10:10.435Z,6.10
2019-03-28T13:12:39.206Z,7.17
2019-03-28T13:15:08.146Z,5.73
2019-03-28T13:17:36.770Z,6.07
2019-03-28T13:20:10.447Z,5.17
2019-03-28T13:22:39.384Z,4.60
2019-03-28T13:25:08.565Z,6.27
2019-03-28T13:27:37.151Z,3.50
2019-03-28T13:30:11.097Z,4.00
2019-03-28T13:32:42.040Z,4.07
2019-03-28T13:35:10.837Z,4.03
2019-03-28T13:37:39.456Z,3.67
2019-03-28T13:40:08.260Z,3.47
2019-03-28T13:42:37.271Z,4.90
2019-03-28T13:45:08.546Z,4.50
2019-03-28T13:47:37.105Z,3.30
2019-03-28T13:50:08.805Z,3.43
2019-03-28T13:52:37.510Z,5.60
2019-03-28T13:55:09.139Z,5.27
2019-03-28T13:57:38.026Z,4.77
2019-03-28T14:00:07.608Z,3.83
2019-03-28T14:02:36.638Z,5.13
2019-03-28T14:05:12.908Z,3.60
2019-03-28T14:07:40.203Z,3.90
2019-03-28T14:10:09.511Z,4.20
2019-03-28T14:12:38.147Z,5.20
2019-03-28T14:15:07.364Z,4.33
2019-03-28T14:17:36.287Z,4.57
2019-03-28T14:20:06.600Z,4.03
2019-03-28T14:22:35.621Z,4.77
2019-03-28T14:25:06.160Z,4.23
2019-03-28T14:27:34.800Z,4.17
2019-03-28T14:30:04.924Z,4.57
2019-03-28T14:32:33.572Z,4.97
2019-03-28T14:35:02.136Z,5.30
2019-03-28T14:37:30.707Z,6.10
2019-03-28T14:39:59.404Z,5.83
2019-03-28T14:42:28.038Z,5.17
2019-03-28T14:44:56.607Z,3.73
2019-03-28T14:47:25.327Z,3.27
2019-03-28T14:49:53.945Z,4.03
2019-03-28T14:52:22.833Z,5.30
2019-03-28T14:54:51.408Z,4.90
2019-03-28T14:57:21.014Z,4.70
2019-03-28T14:59:50.440Z,4.70
2019-03-28T15:02:19.121Z,6.10
2019-03-28T15:04:47.671Z,7.40
2019-03-28T15:07:16.713Z,7.87
2019-03-28T15:09:45.341Z,5.77
2019-03-28T15:12:13.995Z,5.87
2019-03-28T15:14:42.561Z,9.03
2019-03-28T15:17:11.382Z,8.83
2019-03-28T15:19:40.440Z,9.40
2019-03-28T15:22:09.491Z,8.40
2019-03-28T15:24:38.116Z,9.40
2019-03-28T15:27:06.713Z,10.07
2019-03-28T15:29:35.286Z,9.57
2019-03-28T15:32:03.923Z,9.23
2019-03-28T15:34:32.527Z,9.17
2019-03-28T15:37:01.150Z,8.37
2019-03-28T15:39:29.827Z,8.43
2019-03-28T15:41:58.473Z,7.20
2019-03-28T15:44:27.375Z,6.17
2019-03-28T15:46:55.952Z,7.23
2019-03-28T15:49:24.668Z,5.90
2019-03-28T15:51:53.309Z,4.93
2019-03-28T15:54:22.014Z,3.97
2019-03-28T15:56:51.029Z,4.90
2019-03-28T15:59:20.158Z,3.00
2019-03-28T16:01:49.126Z,2.53
2019-03-28T16:04:17.691Z,3.70
2019-03-28T16:06:46.342Z,3.35
2019-03-28T16:09:18.090Z,3.20
2019-03-28T16:11:45.134Z,3.20
2019-03-28T16:14:13.687Z,3.20
2019-03-28T16:16:42.361Z,3.23
2019-03-28T16:19:10.935Z,3.10
2019-03-28T16:21:39.886Z,2.83
2019-03-28T16:24:08.460Z,2.97
2019-03-28T16:26:37.088Z,3.30
2019-03-28T16:29:05.665Z,3.53
2019-03-28T16:31:34.336Z,3.40
2019-03-28T16:34:07.112Z,2.80
2019-03-28T16:36:33.479Z,2.00
2019-03-28T16:39:02.053Z,1.60
2019-03-28T16:41:30.961Z,1.40
2019-03-28T16:43:59.802Z,2.33
2019-03-28T16:46:28.463Z,1.80
2019-03-28T16:48:57.044Z,1.50
2019-03-28T16:51:25.895Z,2.10
2019-03-28T16:53:55.904Z,1.97
2019-03-28T16:56:24.808Z,1.87
2019-03-28T16:58:55.433Z,1.90
2019-03-28T17:01:23.709Z,1.73
2019-03-28T17:03:52.415Z,2.57
2019-03-28T17:06:21.393Z,1.97
2019-03-28T17:08:52.400Z,1.80
2019-03-28T17:11:20.971Z,1.50
2019-03-28T17:13:49.593Z,1.60
2019-03-28T17:16:18.166Z,2.20
2019-03-28T17:18:46.729Z,1.37
2019-03-28T17:21:15.370Z,2.60
2019-03-28T17:23:43.928Z,2.20
2019-03-28T17:26:12.580Z,2.17
2019-03-28T17:28:41.687Z,2.40
2019-03-28T17:31:10.257Z,2.90
2019-03-28T17:33:38.878Z,2.80
2019-03-28T17:36:07.447Z,1.67
2019-03-28T17:38:36.104Z,2.47
2019-03-28T17:41:06.638Z,2.30
2019-03-28T17:43:35.391Z,2.80
2019-03-28T17:46:04.285Z,3.40
2019-03-28T17:48:32.937Z,4.10
2019-03-28T17:51:01.582Z,3.97
2019-03-28T17:53:30.250Z,3.67
2019-03-28T17:55:58.865Z,4.23
2019-03-28T17:58:27.532Z,3.90
2019-03-28T18:00:56.226Z,4.20
2019-03-28T18:03:30.953Z,4.13
2019-03-28T18:05:58.528Z,4.27
2019-03-28T18:08:25.635Z,4.40
2019-03-28T18:10:54.583Z,4.33
2019-03-28T18:13:24.348Z,4.00
2019-03-28T18:15:52.918Z,4.13
2019-03-28T18:18:21.600Z,3.70
2019-03-28T18:20:50.208Z,4.07
2019-03-28T18:23:18.902Z,3.60
2019-03-28T18:25:47.560Z,3.83
2019-03-28T18:28:16.506Z,4.00
2019-03-28T18:30:45.834Z,3.53
2019-03-28T18:33:14.949Z,4.17
2019-03-28T18:35:43.631Z,4.70
2019-03-28T18:38:12.269Z,3.73
2019-03-28T18:40:40.872Z,4.73
2019-03-28T18:43:09.640Z,4.70
2019-03-28T18:45:38.300Z,4.10
2019-03-28T18:48:09.079Z,4.87
2019-03-28T18:50:40.906Z,5.27
2019-03-28T18:53:08.235Z,4.73
2019-03-28T18:55:36.849Z,4.70
2019-03-28T18:58:05.760Z,5.10
2019-03-28T19:00:34.633Z,4.33
2019-03-28T19:03:03.270Z,5.00
2019-03-28T19:05:31.880Z,5.07
2019-03-28T19:08:01.696Z,5.07
2019-03-28T19:10:30.652Z,5.30
2019-03-28T19:12:59.226Z,6.70
2019-03-28T19:15:27.882Z,7.10
2019-03-28T19:17:56.601Z,6.03
2019-03-28T19:20:25.285Z,6.73
2019-03-28T19:22:54.005Z,6.20
2019-03-28T19:25:23.111Z,5.87
2019-03-28T19:27:51.977Z,6.90
2019-03-28T19:30:31.988Z,7.37
2019-03-28T19:33:00.684Z,7.67
2019-03-28T19:35:33.109Z,7.43
2019-03-28T19:38:00.309Z,10.53
2019-03-28T19:40:28.989Z,8.50
2019-03-28T19:42:57.688Z,7.87
2019-03-28T19:45:35.851Z,8.00
2019-03-28T19:48:05.406Z,7.80
2019-03-28T19:50:34.181Z,7.93
2019-03-28T19:53:03.370Z,8.23
2019-03-28T19:55:31.980Z,7.80
2019-03-28T19:58:00.639Z,7.30
2019-03-28T20:00:29.281Z,8.80
2019-03-28T20:03:00.407Z,9.23
2019-03-28T20:05:28.658Z,8.13
2019-03-28T20:07:57.300Z,8.23
2019-03-28T20:10:25.940Z,8.83
2019-03-28T20:12:54.589Z,8.97
2019-03-28T20:15:23.247Z,10.00
2019-03-28T20:17:51.914Z,10.20
2019-03-28T20:20:21.020Z,12.03
2019-03-28T20:22:49.799Z,11.00
2019-03-28T20:25:18.481Z,12.80
2019-03-28T20:27:47.200Z,12.87
2019-03-28T20:30:16.171Z,12.40
2019-03-28T20:32:46.787Z,12.43
2019-03-28T20:35:15.474Z,12.93
2019-03-28T20:37:44.140Z,11.97
2019-03-28T20:40:13.767Z,13.13
2019-03-28T20:42:42.398Z,12.30
2019-03-28T20:45:12.050Z,12.70
2019-03-28T20:47:40.742Z,13.20
2019-03-28T20:50:10.075Z,12.43
2019-03-28T20:52:38.652Z,12.93
2019-03-28T20:55:08.501Z,13.37
2019-03-28T20:57:40.220Z,13.43
2019-03-28T21:00:08.967Z,14.27
2019-03-28T21:02:37.872Z,14.00
2019-03-28T21:05:08.476Z,13.37
2019-03-28T21:07:37.498Z,13.80
2019-03-28T21:10:06.943Z,14.87
2019-03-28T21:12:35.606Z,14.50
2019-03-28T21:15:06.235Z,14.37
2019-03-28T21:17:34.856Z,14.83
2019-03-28T21:20:04.715Z,13.63
2019-03-28T21:22:33.450Z,14.73
2019-03-28T21:25:03.731Z,12.87
2019-03-28T21:27:33.057Z,14.90
2019-03-28T21:30:01.931Z,15.17
2019-03-28T21:32:30.486Z,14.83
2019-03-28T21:34:59.162Z,16.27
2019-03-28T21:37:27.759Z,16.07
2019-03-28T21:39:56.334Z,15.80
2019-03-28T21:42:24.976Z,16.47
2019-03-28T21:44:54.089Z,16.50
2019-03-28T21:47:22.631Z,15.87
2019-03-28T21:49:51.368Z,17.27
2019-03-28T21:52:19.951Z,17.37
2019-03-28T21:54:48.631Z,17.87
2019-03-28T21:57:17.264Z,17.63
2019-03-28T21:59:45.868Z,19.27
2019-03-28T22:02:14.514Z,19.13
2019-03-28T22:04:43.122Z,21.37
2019-03-28T22:07:11.723Z,20.73
2019-03-28T22:09:40.443Z,20.43
2019-03-28T22:12:09.085Z,21.17
2019-03-28T22:14:37.607Z,21.80
2019-03-28T22:17:06.647Z,20.17
2019-03-28T22:19:35.210Z,18.30
2019-03-28T22:22:03.786Z,20.90
2019-03-28T22:24:32.441Z,20.80
2019-03-28T22:27:01.098Z,21.73
2019-03-28T22:29:29.694Z,25.37
2019-03-28T22:31:58.308Z,25.60
2019-03-28T22:34:26.916Z,25.70
2019-03-28T22:36:57.491Z,27.10
2019-03-28T22:39:26.117Z,27.98
2019-03-28T22:41:54.683Z,27.45
2019-03-28T22:44:23.367Z,27.53
2019-03-28T22:46:51.957Z,30.07
2019-03-28T22:49:20.542Z,27.77
2019-03-28T22:51:49.150Z,32.03
2019-03-28T22:54:17.983Z,30.82
2019-03-28T22:56:46.567Z,31.50
2019-03-28T22:59:15.161Z,30.02
2019-03-28T23:01:44.036Z,29.77
2019-03-28T23:04:12.973Z,28.23
2019-03-28T23:06:41.722Z,27.57
2019-03-28T23:09:10.383Z,28.80
2019-03-28T23:11:40.526Z,26.70
2019-03-28T23:14:09.479Z,28.20
2019-03-28T23:16:41.003Z,26.65
2019-03-28T23:19:11.970Z,26.60
2019-03-28T23:21:39.826Z,26.12
2019-03-28T23:24:08.434Z,24.80
2019-03-28T23:26:37.031Z,24.60
2019-03-28T23:29:06.016Z,25.02
2019-03-28T23:31:34.603Z,26.75
2019-03-28T23:34:03.275Z,25.37
2019-03-28T23:36:32.776Z,26.85
2019-03-28T23:39:01.466Z,25.80
2019-03-28T23:41:30.031Z,26.57
2019-03-28T23:43:58.705Z,26.23
2019-03-28T23:46:27.286Z,25.90
2019-03-28T23:48:56.257Z,26.20
2019-03-28T23:51:25.357Z,26.40
2019-03-28T23:53:53.919Z,26.05
2019-03-28T23:56:22.522Z,24.72
2019-03-28T23:58:52.752Z,24.20
